Terminal Aerodrome Forecast
Issued by NWS Lake Charles, LA

Home | Current Version | Previous Version | Text Only | Print | Product List | Glossary On
Versions: 1 2 3 4 5 6 7 8 9 10 11 12 13 14 15 16 17
000
FTUS44 KLCH 031120
TAFLFT
TAF
KLFT 031120Z 0312/0412 19003KT P6SM FEW025 SCT250
     FM031500 22009KT P6SM SCT030 SCT250
     FM040100 19004KT P6SM FEW040 SCT250=

USA.gov is the U.S. government's official web portal to all federal, state and local government web resources and services.